Time;durP1;ratioP1;P1;durP2;ratioP2;P2;SDS_P1;SDS_P2;PMS_P1;PMS_P2;Temp;Humidity;BMP_temperature;BMP_pressure;BME280_temperature;BME280_humidity;BME280_pressure;Samples;Min_cycle;Max_cycle;Signal;HPM_P1;HPM_P2
2024/03/26 00:02:15;;;;;;;;;;;;;;;;;;5049561;28;20384;-63
2024/03/26 00:04:41;;;;;;;;;;;;;;;;;;5039877;28;19921;-63
2024/03/26 00:07:06;;;;;;;;;;;;;;;;;;5051414;28;19982;-63
2024/03/26 00:09:32;;;;;;;;;;;;;;;;;;5043516;28;19932;-63
2024/03/26 00:11:58;;;;;;;;;;;;;;;;;;5050188;23;19928;-66
2024/03/26 00:14:24;;;;;;;;;;;;;;;;;;5029782;28;19925;-66
2024/03/26 00:16:50;;;;;;;;;;;;;;;;;;5022610;28;19930;-67
2024/03/26 00:19:16;;;;;;;;;;;;;;;;;;5029331;28;20475;-67
2024/03/26 00:21:42;;;;;;;;;;;;;;;;;;5029330;28;20063;-67
2024/03/26 00:24:08;;;;;;;;;;;;;;;;;;5031347;28;19957;-67
2024/03/26 00:26:34;;;;;;;;;;;;;;;;;;5030638;28;19930;-67
2024/03/26 00:29:00;;;;;;;;;;;;;;;;;;5031239;28;20384;-67
2024/03/26 00:31:31;;;;;;;;;;;;;;;;;;5023826;28;19929;-67
2024/03/26 00:33:57;;;;;;;;;;;;;;;;;;5023737;28;19936;-67
2024/03/26 00:36:23;;;;;;;;;;;;;;;;;;5030793;28;19921;-67
2024/03/26 00:38:49;;;;;;;;;;;;;;;;;;5026238;28;19932;-67
2024/03/26 00:41:15;;;;;;;;;;;;;;;;;;5029563;28;20547;-67
2024/03/26 00:43:41;;;;;;;;;;;;;;;;;;5046854;28;19921;-67
2024/03/26 00:46:07;;;;;;;;;;;;;;;;;;5025543;28;19936;-67
2024/03/26 00:48:33;;;;;;;;;;;;;;;;;;5012443;28;19925;-67
2024/03/26 00:50:59;;;;;;;;;;;;;;;;;;5021529;28;20022;-67
2024/03/26 00:53:24;;;;;;;;;;;;;;;;;;5029527;28;19967;-67
2024/03/26 00:55:50;;;;;;;;;;;;;;;;;;5012356;28;20002;-67
2024/03/26 00:58:16;;;;;;;;;;;;;;;;;;5027998;28;19948;-66
2024/03/26 01:00:42;;;;;;;;;;;;;;;;;;5028890;28;19956;-67
2024/03/26 01:03:08;;;;;;;;;;;;;;;;;;5024625;28;20293;-66
2024/03/26 01:05:34;;;;;;;;;;;;;;;;;;5027703;28;19921;-66
2024/03/26 01:08:00;;;;;;;;;;;;;;;;;;5023391;28;19932;-64
2024/03/26 01:10:26;;;;;;;;;;;;;;;;;;5031720;28;20284;-65
2024/03/26 01:12:52;;;;;;;;;;;;;;;;;;5030490;28;20422;-64
2024/03/26 01:15:18;;;;;;;;;;;;;;;;;;5025737;28;19921;-64
2024/03/26 01:17:44;;;;;;;;;;;;;;;;;;5036299;28;19924;-64
2024/03/26 01:20:09;;;;;;;;;;;;;;;;;;5024517;28;19921;-64
2024/03/26 01:22:35;;;;;;;;;;;;;;;;;;5034048;28;20460;-64
2024/03/26 01:25:02;;;;;;;;;;;;;;;;;;5030166;28;19956;-65
2024/03/26 01:27:28;;;;;;;;;;;;;;;;;;5033825;28;19921;-65
2024/03/26 01:29:54;;;;;;;;;;;;;;;;;;5032922;28;19939;-65
2024/03/26 01:32:20;;;;;;;;;;;;;;;;;;5033464;28;19929;-65
2024/03/26 01:34:46;;;;;;;;;;;;;;;;;;5027057;28;19924;-65
2024/03/26 01:37:12;;;;;;;;;;;;;;;;;;5031316;28;19921;-65
2024/03/26 01:39:37;;;;;;;;;;;;;;;;;;5024754;28;19925;-65
2024/03/26 01:42:03;;;;;;;;;;;;;;;;;;5029099;28;19975;-65
2024/03/26 01:44:31;;;;;;;;;;;;;;;;;;5035204;28;20292;-65
2024/03/26 01:46:57;;;;;;;;;;;;;;;;;;5029169;28;19972;-65
2024/03/26 01:49:23;;;;;;;;;;;;;;;;;;5028021;28;19979;-65
2024/03/26 01:51:49;;;;;;;;;;;;;;;;;;5031095;28;20016;-64
2024/03/26 01:54:15;;;;;;;;;;;;;;;;;;5032299;28;20007;-65
2024/03/26 01:56:41;;;;;;;;;;;;;;;;;;5031289;28;20012;-65
2024/03/26 01:59:07;;;;;;;;;;;;;;;;;;5034023;28;19921;-66
2024/03/26 02:01:33;;;;;;;;;;;;;;;;;;5033276;28;19995;-65
2024/03/26 02:03:59;;;;;;;;;;;;;;;;;;5030170;28;19921;-65
2024/03/26 02:06:25;;;;;;;;;;;;;;;;;;5033732;28;20358;-64
2024/03/26 02:08:51;;;;;;;;;;;;;;;;;;5033331;28;19925;-64
2024/03/26 02:11:17;;;;;;;;;;;;;;;;;;5033119;28;19929;-65
2024/03/26 02:13:43;;;;;;;;;;;;;;;;;;5029148;28;19936;-65
2024/03/26 02:16:09;;;;;;;;;;;;;;;;;;5032382;28;19929;-66
2024/03/26 02:18:35;;;;;;;;;;;;;;;;;;5033475;28;19929;-65
2024/03/26 02:21:01;;;;;;;;;;;;;;;;;;5031312;28;19921;-68
2024/03/26 02:23:27;;;;;;;;;;;;;;;;;;5032337;28;20067;-67
2024/03/26 02:25:53;;;;;;;;;;;;;;;;;;5023086;28;19948;-68
2024/03/26 02:28:19;;;;;;;;;;;;;;;;;;5027371;28;19921;-68
2024/03/26 02:30:45;;;;;;;;;;;;;;;;;;5019307;28;19982;-67
2024/03/26 02:33:11;;;;;;;;;;;;;;;;;;5047843;28;19933;-69
2024/03/26 02:35:37;;;;;;;;;;;;;;;;;;5027632;28;20300;-69
2024/03/26 02:38:03;;;;;;;;;;;;;;;;;;5031700;28;19925;-69
2024/03/26 02:40:29;;;;;;;;;;;;;;;;;;5033119;28;19925;-68
2024/03/26 02:42:55;;;;;;;;;;;;;;;;;;5032238;28;19925;-69
2024/03/26 02:45:20;;;;;;;;;;;;;;;;;;5028194;28;19921;-69
2024/03/26 02:47:46;;;;;;;;;;;;;;;;;;5031917;28;19921;-68
2024/03/26 02:50:12;;;;;;;;;;;;;;;;;;5026980;28;19925;-68
2024/03/26 02:52:38;;;;;;;;;;;;;;;;;;5029470;28;19938;-68
2024/03/26 02:55:04;;;;;;;;;;;;;;;;;;5032819;28;19921;-68
2024/03/26 02:57:30;;;;;;;;;;;;;;;;;;5032456;28;19921;-68
2024/03/26 02:59:56;;;;;;;;;;;;;;;;;;5033670;28;19991;-68
2024/03/26 03:02:22;;;;;;;;;;;;;;;;;;5031433;28;20340;-68
2024/03/26 03:04:48;;;;;;;;;;;;;;;;;;5029406;28;20428;-68
2024/03/26 03:07:14;;;;;;;;;;;;;;;;;;5030577;28;19956;-69
2024/03/26 03:09:39;;;;;;;;;;;;;;;;;;5030625;28;20004;-69
2024/03/26 03:12:05;;;;;;;;;;;;;;;;;;5031936;28;20368;-69
2024/03/26 03:14:31;;;;;;;;;;;;;;;;;;5028736;28;19921;-69
2024/03/26 03:16:57;;;;;;;;;;;;;;;;;;5028426;28;19929;-69
2024/03/26 03:19:23;;;;;;;;;;;;;;;;;;5033166;28;19925;-69
2024/03/26 03:21:49;;;;;;;;;;;;;;;;;;5027088;28;19931;-68
2024/03/26 03:24:15;;;;;;;;;;;;;;;;;;5028777;28;19921;-68
2024/03/26 03:26:41;;;;;;;;;;;;;;;;;;5030244;28;19921;-69
2024/03/26 03:29:07;;;;;;;;;;;;;;;;;;5029598;28;20388;-69
2024/03/26 03:31:33;;;;;;;;;;;;;;;;;;5029126;28;19921;-69
2024/03/26 03:33:59;;;;;;;;;;;;;;;;;;5032656;28;19925;-69
2024/03/26 03:36:25;;;;;;;;;;;;;;;;;;5025994;28;19977;-68
2024/03/26 03:38:51;;;;;;;;;;;;;;;;;;5026997;28;19936;-68
2024/03/26 03:41:17;;;;;;;;;;;;;;;;;;5029939;28;20375;-68
2024/03/26 03:43:42;;;;;;;;;;;;;;;;;;5031062;28;19956;-68
2024/03/26 03:46:08;;;;;;;;;;;;;;;;;;5027913;28;19964;-69
2024/03/26 03:48:34;;;;;;;;;;;;;;;;;;5029198;28;20017;-67
2024/03/26 03:51:00;;;;;;;;;;;;;;;;;;5028215;28;20369;-69
2024/03/26 03:53:26;;;;;;;;;;;;;;;;;;5024599;28;19925;-68
2024/03/26 03:55:52;;;;;;;;;;;;;;;;;;5031810;28;19920;-67
2024/03/26 03:58:18;;;;;;;;;;;;;;;;;;5027735;28;20388;-67
2024/03/26 04:00:44;;;;;;;;;;;;;;;;;;5040117;28;19921;-69
2024/03/26 04:03:10;;;;;;;;;;;;;;;;;;5051896;28;19920;-68
2024/03/26 04:05:36;;;;;;;;;;;;;;;;;;5041811;28;19986;-68
2024/03/26 04:08:01;;;;;;;;;;;;;;;;;;5018598;28;19940;-68
2024/03/26 04:10:27;;;;;;;;;;;;;;;;;;5022620;28;19940;-69
2024/03/26 04:12:53;;;;;;;;;;;;;;;;;;5022799;28;19925;-68
2024/03/26 04:15:19;;;;;;;;;;;;;;;;;;5038622;28;20291;-68
2024/03/26 04:17:45;;;;;;;;;;;;;;;;;;5032331;28;19925;-69
2024/03/26 04:20:11;;;;;;;;;;;;;;;;;;5032443;28;19925;-69
2024/03/26 04:22:37;;;;;;;;;;;;;;;;;;5030249;28;19929;-70
2024/03/26 04:25:03;;;;;;;;;;;;;;;;;;5011031;28;19921;-69
2024/03/26 04:27:29;;;;;;;;;;;;;;;;;;5015346;28;20033;-68
2024/03/26 04:29:55;;;;;;;;;;;;;;;;;;5032156;28;20021;-68
2024/03/26 04:32:20;;;;;;;;;;;;;;;;;;5022432;28;19931;-68
2024/03/26 04:34:46;;;;;;;;;;;;;;;;;;5031233;28;19921;-69
2024/03/26 04:37:12;;;;;;;;;;;;;;;;;;5032064;28;19921;-69
2024/03/26 04:39:39;;;;;;;;;;;;;;;;;;5030585;28;19931;-69
2024/03/26 04:42:04;;;;;;;;;;;;;;;;;;5028554;28;19921;-68
2024/03/26 04:44:30;;;;;;;;;;;;;;;;;;5042113;28;19925;-68
2024/03/26 04:46:56;;;;;;;;;;;;;;;;;;5030228;28;19979;-68
2024/03/26 04:49:22;;;;;;;;;;;;;;;;;;5044745;28;19967;-68
2024/03/26 04:51:48;;;;;;;;;;;;;;;;;;5029450;28;20324;-69
2024/03/26 04:54:14;;;;;;;;;;;;;;;;;;5031998;28;19921;-69
2024/03/26 04:56:40;;;;;;;;;;;;;;;;;;5038577;28;19924;-69
2024/03/26 04:59:06;;;;;;;;;;;;;;;;;;5034464;28;19920;-69
2024/03/26 05:01:32;;;;;;;;;;;;;;;;;;5043575;28;19928;-69
2024/03/26 05:03:58;;;;;;;;;;;;;;;;;;5024584;28;19926;-69
2024/03/26 05:06:24;;;;;;;;;;;;;;;;;;5036364;28;19921;-67
2024/03/26 05:08:50;;;;;;;;;;;;;;;;;;5026615;28;20265;-68
2024/03/26 05:11:16;;;;;;;;;;;;;;;;;;5011681;28;19933;-68
2024/03/26 05:13:42;;;;;;;;;;;;;;;;;;5010564;28;19937;-68
2024/03/26 05:16:08;;;;;;;;;;;;;;;;;;5010459;28;19926;-68
2024/03/26 05:18:34;;;;;;;;;;;;;;;;;;5049560;28;19921;-68
2024/03/26 05:20:59;;;;;;;;;;;;;;;;;;5028814;28;20328;-68
2024/03/26 05:23:25;;;;;;;;;;;;;;;;;;5017265;28;19929;-68
2024/03/26 05:25:51;;;;;;;;;;;;;;;;;;5018929;28;19925;-68
2024/03/26 05:28:17;;;;;;;;;;;;;;;;;;5030881;28;19947;-68
2024/03/26 05:30:43;;;;;;;;;;;;;;;;;;5030952;28;19929;-68
2024/03/26 05:33:09;;;;;;;;;;;;;;;;;;5028777;28;19929;-69
2024/03/26 05:35:35;;;;;;;;;;;;;;;;;;5012206;28;20377;-68
2024/03/26 05:38:01;;;;;;;;;;;;;;;;;;5028039;28;20018;-68
2024/03/26 05:40:27;;;;;;;;;;;;;;;;;;5026966;28;20067;-68
2024/03/26 05:42:53;;;;;;;;;;;;;;;;;;5022607;28;20016;-69
2024/03/26 05:45:19;;;;;;;;;;;;;;;;;;5027632;28;19935;-68
2024/03/26 05:47:45;;;;;;;;;;;;;;;;;;5029001;28;19921;-68
2024/03/26 05:50:11;;;;;;;;;;;;;;;;;;5022470;28;19921;-68
2024/03/26 05:52:37;;;;;;;;;;;;;;;;;;5027664;28;20332;-68
2024/03/26 05:55:03;;;;;;;;;;;;;;;;;;5029689;28;20430;-68
2024/03/26 05:57:29;;;;;;;;;;;;;;;;;;5027570;28;19960;-69
2024/03/26 05:59:55;;;;;;;;;;;;;;;;;;5027826;28;19968;-69
2024/03/26 06:02:20;;;;;;;;;;;;;;;;;;5026043;28;20008;-67
2024/03/26 06:04:46;;;;;;;;;;;;;;;;;;5030327;28;19968;-68
2024/03/26 06:07:12;;;;;;;;;;;;;;;;;;5030087;28;19956;-68
2024/03/26 06:09:38;;;;;;;;;;;;;;;;;;5030109;28;20024;-67
2024/03/26 06:12:04;;;;;;;;;;;;;;;;;;5028623;28;19928;-69
2024/03/26 06:14:30;;;;;;;;;;;;;;;;;;5031453;28;20276;-69
2024/03/26 06:16:56;;;;;;;;;;;;;;;;;;5029400;28;19927;-68
2024/03/26 06:19:22;;;;;;;;;;;;;;;;;;5033278;28;19921;-68
2024/03/26 06:21:48;;;;;;;;;;;;;;;;;;5029099;28;20384;-66
2024/03/26 06:24:14;;;;;;;;;;;;;;;;;;5033834;28;19921;-66
2024/03/26 06:26:39;;;;;;;;;;;;;;;;;;5026124;28;19923;-65
2024/03/26 06:29:05;;;;;;;;;;;;;;;;;;5032749;28;19928;-66
2024/03/26 06:31:31;;;;;;;;;;;;;;;;;;5032799;28;19979;-66
2024/03/26 06:33:57;;;;;;;;;;;;;;;;;;5016192;28;19929;-65
2024/03/26 06:36:23;;;;;;;;;;;;;;;;;;5022765;28;19944;-66
2024/03/26 06:38:49;;;;;;;;;;;;;;;;;;5031823;28;19922;-66
2024/03/26 06:41:15;;;;;;;;;;;;;;;;;;5033067;28;20287;-66
2024/03/26 06:43:41;;;;;;;;;;;;;;;;;;5041705;28;19929;-66
2024/03/26 06:46:07;;;;;;;;;;;;;;;;;;5037148;28;19987;-66
2024/03/26 06:48:33;;;;;;;;;;;;;;;;;;5030713;28;19956;-66
2024/03/26 06:50:59;;;;;;;;;;;;;;;;;;5027795;28;19933;-66
2024/03/26 06:53:25;;;;;;;;;;;;;;;;;;5015051;28;19925;-67
2024/03/26 06:55:51;;;;;;;;;;;;;;;;;;5030574;28;19932;-66
2024/03/26 06:58:17;;;;;;;;;;;;;;;;;;5022057;28;19929;-66
2024/03/26 07:00:43;;;;;;;;;;;;;;;;;;5005936;28;19980;-66
2024/03/26 07:03:09;;;;;;;;;;;;;;;;;;5032019;28;20279;-66
2024/03/26 07:05:35;;;;;;;;;;;;;;;;;;5032156;28;19928;-66
2024/03/26 07:08:02;;;;;;;;;;;;;;;;;;5032677;28;19964;-67
2024/03/26 07:10:29;;;;;;;;;;;;;;;;;;5026842;28;19965;-66
2024/03/26 07:12:55;;;;;;;;;;;;;;;;;;5045333;28;20012;-65
2024/03/26 07:15:21;;;;;;;;;;;;;;;;;;5019266;28;20387;-68
2024/03/26 07:17:46;;;;;;;;;;;;;;;;;;5021998;28;20004;-68
2024/03/26 07:20:12;;;;;;;;;;;;;;;;;;5031843;28;20012;-69
2024/03/26 07:22:38;;;;;;;;;;;;;;;;;;5048116;28;20009;-69
2024/03/26 07:25:04;;;;;;;;;;;;;;;;;;5010882;28;20012;-69
2024/03/26 07:27:30;;;;;;;;;;;;;;;;;;5036631;28;20327;-68
2024/03/26 07:29:57;;;;;;;;;;;;;;;;;;5047941;28;19925;-69
2024/03/26 07:32:23;;;;;;;;;;;;;;;;;;5048396;28;20063;-69
2024/03/26 07:34:49;;;;;;;;;;;;;;;;;;5032800;28;20031;-69
2024/03/26 07:37:15;;;;;;;;;;;;;;;;;;5047428;28;19925;-69
2024/03/26 07:39:41;;;;;;;;;;;;;;;;;;5030757;28;20007;-69
2024/03/26 07:42:07;;;;;;;;;;;;;;;;;;5026351;28;20336;-69
2024/03/26 07:44:33;;;;;;;;;;;;;;;;;;5023211;28;19925;-67
2024/03/26 07:46:59;;;;;;;;;;;;;;;;;;5024336;28;19929;-68
2024/03/26 07:49:25;;;;;;;;;;;;;;;;;;5025698;28;19921;-68
2024/03/26 07:51:51;;;;;;;;;;;;;;;;;;5019969;28;19940;-68
2024/03/26 07:54:20;;;;;;;;;;;;;;;;;;5027084;28;19932;-68
2024/03/26 07:56:46;;;;;;;;;;;;;;;;;;5023006;28;20288;-68
2024/03/26 07:59:12;;;;;;;;;;;;;;;;;;5022323;28;20005;-68
2024/03/26 08:01:38;;;;;;;;;;;;;;;;;;5007345;28;20671;-68
2024/03/26 08:04:05;;;;;;;;;;;;;;;;;;5027528;28;19921;-68
2024/03/26 08:06:32;;;;;;;;;;;;;;;;;;5023338;28;20423;-69
2024/03/26 08:08:58;;;;;;;;;;;;;;;;;;5042159;28;19921;-68
2024/03/26 08:11:24;;;;;;;;;;;;;;;;;;5027804;28;19971;-69
2024/03/26 08:13:50;;;;;;;;;;;;;;;;;;5025397;28;19992;-68
2024/03/26 08:16:15;;;;;;;;;;;;;;;;;;5026583;28;20388;-68
2024/03/26 08:18:41;;;;;;;;;;;;;;;;;;5021811;28;19925;-69
2024/03/26 08:21:07;;;;;;;;;;;;;;;;;;5034308;28;19940;-69
2024/03/26 08:23:33;;;;;;;;;;;;;;;;;;5023493;28;19957;-69
2024/03/26 08:25:59;;;;;;;;;;;;;;;;;;5024417;28;20384;-68
2024/03/26 08:28:25;;;;;;;;;;;;;;;;;;5023176;28;19921;-69
2024/03/26 08:30:51;;;;;;;;;;;;;;;;;;5005365;28;19956;-67
2024/03/26 08:33:17;;;;;;;;;;;;;;;;;;5024261;28;19976;-68
2024/03/26 08:35:43;;;;;;;;;;;;;;;;;;5030685;28;20013;-69
2024/03/26 08:38:09;;;;;;;;;;;;;;;;;;5011527;28;19928;-67
2024/03/26 08:40:35;;;;;;;;;;;;;;;;;;5026261;28;20597;-67
2024/03/26 08:43:01;;;;;;;;;;;;;;;;;;5022779;28;20008;-68
2024/03/26 08:45:27;;;;;;;;;;;;;;;;;;5027721;28;20063;-68
2024/03/26 08:47:55;;;;;;;;;;;;;;;;;;5022880;28;20436;-66
2024/03/26 08:50:21;;;;;;;;;;;;;;;;;;5019875;28;20009;-66
2024/03/26 08:52:47;;;;;;;;;;;;;;;;;;5026453;28;19959;-67
2024/03/26 08:55:13;;;;;;;;;;;;;;;;;;5025038;28;19929;-67
2024/03/26 08:57:39;;;;;;;;;;;;;;;;;;5028423;28;19927;-67
2024/03/26 09:00:09;;;;;;;;;;;;;;;;;;5021702;28;20022;-67
2024/03/26 09:02:35;;;;;;;;;;;;;;;;;;5040620;28;19961;-67
2024/03/26 09:05:01;;;;;;;;;;;;;;;;;;5029352;28;20395;-67
2024/03/26 09:07:27;;;;;;;;;;;;;;;;;;5029478;28;20438;-67
2024/03/26 09:09:53;;;;;;;;;;;;;;;;;;5025044;28;19925;-67
2024/03/26 09:12:18;;;;;;;;;;;;;;;;;;5023749;28;20392;-66
2024/03/26 09:14:44;;;;;;;;;;;;;;;;;;5018772;28;19921;-68
2024/03/26 09:17:10;;;;;;;;;;;;;;;;;;5027099;28;19921;-67
2024/03/26 09:19:38;;;;;;;;;;;;;;;;;;5028590;28;20365;-67
2024/03/26 09:22:04;;;;;;;;;;;;;;;;;;5028902;28;19921;-68
2024/03/26 09:24:30;;;;;;;;;;;;;;;;;;5029287;28;20003;-68
2024/03/26 09:26:56;;;;;;;;;;;;;;;;;;5028030;28;20003;-68
2024/03/26 09:29:22;;;;;;;;;;;;;;;;;;5031891;28;19921;-67
2024/03/26 09:31:47;;;;;;;;;;;;;;;;;;5033229;28;20003;-68
2024/03/26 09:34:14;;;;;;;;;;;;;;;;;;5033729;28;19940;-67
2024/03/26 09:36:40;;;;;;;;;;;;;;;;;;5032972;28;19960;-67
2024/03/26 09:39:06;;;;;;;;;;;;;;;;;;5030171;28;20325;-67
2024/03/26 09:41:32;;;;;;;;;;;;;;;;;;5033403;28;19924;-69
2024/03/26 09:43:58;;;;;;;;;;;;;;;;;;5022170;28;19925;-67
2024/03/26 09:46:24;;;;;;;;;;;;;;;;;;5023737;28;19928;-68
2024/03/26 09:48:51;;;;;;;;;;;;;;;;;;5033164;28;19921;-67
2024/03/26 09:51:17;;;;;;;;;;;;;;;;;;5033066;28;20000;-67
2024/03/26 09:53:43;;;;;;;;;;;;;;;;;;5025571;28;19974;-67
2024/03/26 09:56:08;;;;;;;;;;;;;;;;;;5036180;28;19979;-67
2024/03/26 09:58:34;;;;;;;;;;;;;;;;;;5032175;28;19921;-67
2024/03/26 10:01:00;;;;;;;;;;;;;;;;;;5035759;28;20276;-67
2024/03/26 10:03:26;;;;;;;;;;;;;;;;;;5034627;28;19921;-67
2024/03/26 10:05:52;;;;;;;;;;;;;;;;;;5014434;28;19924;-67
2024/03/26 10:08:19;;;;;;;;;;;;;;;;;;5029531;28;19958;-68
2024/03/26 10:10:45;;;;;;;;;;;;;;;;;;5030322;28;19980;-67
2024/03/26 10:13:11;;;;;;;;;;;;;;;;;;5029588;28;20471;-67
2024/03/26 10:15:38;;;;;;;;;;;;;;;;;;5044796;28;19935;-67
2024/03/26 10:18:04;;;;;;;;;;;;;;;;;;5044800;28;20448;-67
2024/03/26 10:20:30;;;;;;;;;;;;;;;;;;5035011;28;20012;-67
2024/03/26 10:22:56;;;;;;;;;;;;;;;;;;5033463;28;19944;-67
2024/03/26 10:25:22;;;;;;;;;;;;;;;;;;5031440;28;19983;-67
2024/03/26 10:27:48;;;;;;;;;;;;;;;;;;5029278;28;19925;-67
2024/03/26 10:30:14;;;;;;;;;;;;;;;;;;5030556;28;20344;-67
2024/03/26 10:32:40;;;;;;;;;;;;;;;;;;5029608;28;19925;-67
2024/03/26 10:35:06;;;;;;;;;;;;;;;;;;5028150;28;19929;-67
2024/03/26 10:37:32;;;;;;;;;;;;;;;;;;5047464;28;19976;-67
2024/03/26 10:39:58;;;;;;;;;;;;;;;;;;5028419;28;19952;-67
2024/03/26 10:42:24;;;;;;;;;;;;;;;;;;5027148;28;20022;-67
2024/03/26 10:44:53;;;;;;;;;;;;;;;;;;5032671;28;20527;-68
2024/03/26 10:47:19;;;;;;;;;;;;;;;;;;5031560;28;19971;-68
2024/03/26 10:49:45;;;;;;;;;;;;;;;;;;5043559;28;19922;-67
2024/03/26 10:52:10;;;;;;;;;;;;;;;;;;5032884;28;19925;-67
2024/03/26 10:54:36;;;;;;;;;;;;;;;;;;5028693;28;20583;-68
2024/03/26 10:57:02;;;;;;;;;;;;;;;;;;5010035;28;19956;-67
2024/03/26 10:59:28;;;;;;;;;;;;;;;;;;5031489;28;19964;-68
2024/03/26 11:01:54;;;;;;;;;;;;;;;;;;5030028;28;19921;-67
2024/03/26 11:04:20;;;;;;;;;;;;;;;;;;5028249;28;20690;-68
2024/03/26 11:06:46;;;;;;;;;;;;;;;;;;5030564;28;19925;-67
2024/03/26 11:09:12;;;;;;;;;;;;;;;;;;5042137;28;20006;-67
2024/03/26 11:11:38;;;;;;;;;;;;;;;;;;5046040;28;20015;-65
2024/03/26 11:14:04;;;;;;;;;;;;;;;;;;5028994;28;20114;-66
2024/03/26 11:16:30;;;;;;;;;;;;;;;;;;5028873;28;20008;-65
2024/03/26 11:18:56;;;;;;;;;;;;;;;;;;5031850;28;19921;-65
2024/03/26 11:21:21;;;;;;;;;;;;;;;;;;5033232;28;20308;-66
2024/03/26 11:23:47;;;;;;;;;;;;;;;;;;5034845;28;20016;-65
2024/03/26 11:26:13;;;;;;;;;;;;;;;;;;5027647;28;19920;-65
2024/03/26 11:28:40;;;;;;;;;;;;;;;;;;5030016;28;19920;-65
2024/03/26 11:31:06;;;;;;;;;;;;;;;;;;5029689;28;19987;-65
2024/03/26 11:33:32;;;;;;;;;;;;;;;;;;5028738;28;19928;-65
2024/03/26 11:35:57;;;;;;;;;;;;;;;;;;5029164;28;20331;-65
2024/03/26 11:38:23;;;;;;;;;;;;;;;;;;5031589;28;19921;-66
2024/03/26 11:40:49;;;;;;;;;;;;;;;;;;5033302;28;19929;-65
2024/03/26 11:43:15;;;;;;;;;;;;;;;;;;5025433;28;19925;-65
2024/03/26 11:45:41;;;;;;;;;;;;;;;;;;5030281;28;20448;-64
2024/03/26 11:48:07;;;;;;;;;;;;;;;;;;5035956;28;20370;-65
2024/03/26 11:50:33;;;;;;;;;;;;;;;;;;5021568;28;20287;-65
2024/03/26 11:52:59;;;;;;;;;;;;;;;;;;5028801;28;20380;-65
2024/03/26 11:55:25;;;;;;;;;;;;;;;;;;5025278;28;19952;-65
2024/03/26 11:57:51;;;;;;;;;;;;;;;;;;5034167;28;20016;-65
2024/03/26 12:00:16;;;;;;;;;;;;;;;;;;5038584;28;20045;-65
2024/03/26 12:02:42;;;;;;;;;;;;;;;;;;5028280;28;19957;-65
2024/03/26 12:05:08;;;;;;;;;;;;;;;;;;5026945;28;20319;-66
2024/03/26 12:07:34;;;;;;;;;;;;;;;;;;5013129;28;20254;-66
2024/03/26 12:10:00;;;;;;;;;;;;;;;;;;5018489;28;19957;-66
2024/03/26 12:12:26;;;;;;;;;;;;;;;;;;5011283;28;19936;-66
2024/03/26 12:14:52;;;;;;;;;;;;;;;;;;5022203;28;19921;-66
2024/03/26 12:17:18;;;;;;;;;;;;;;;;;;5041508;28;19929;-66
2024/03/26 12:19:44;;;;;;;;;;;;;;;;;;5051089;28;20367;-66
2024/03/26 12:22:10;;;;;;;;;;;;;;;;;;5030596;28;19921;-66
2024/03/26 12:24:36;;;;;;;;;;;;;;;;;;5049541;28;19921;-66
2024/03/26 12:27:02;;;;;;;;;;;;;;;;;;5034286;23;20307;-68
2024/03/26 12:29:28;;;;;;;;;;;;;;;;;;5009690;28;19929;-68
2024/03/26 12:31:53;;;;;;;;;;;;;;;;;;5030066;28;19985;-67
2024/03/26 12:34:19;;;;;;;;;;;;;;;;;;5031485;28;19921;-68
2024/03/26 12:36:45;;;;;;;;;;;;;;;;;;5029430;28;20450;-68
2024/03/26 12:39:11;;;;;;;;;;;;;;;;;;5028919;28;19925;-68
2024/03/26 12:41:37;;;;;;;;;;;;;;;;;;5029914;28;19925;-67
2024/03/26 12:44:03;;;;;;;;;;;;;;;;;;5026791;28;19928;-68
2024/03/26 12:46:29;;;;;;;;;;;;;;;;;;5024772;28;20006;-67
2024/03/26 12:48:55;;;;;;;;;;;;;;;;;;5028633;28;19957;-68
2024/03/26 12:51:21;;;;;;;;;;;;;;;;;;5038936;28;19987;-68
2024/03/26 12:53:48;;;;;;;;;;;;;;;;;;5040639;28;19929;-68
2024/03/26 12:56:13;;;;;;;;;;;;;;;;;;5039920;28;20384;-68
2024/03/26 12:58:39;;;;;;;;;;;;;;;;;;5020631;28;19928;-68
2024/03/26 13:01:05;;;;;;;;;;;;;;;;;;5021450;28;19929;-68
2024/03/26 13:03:31;;;;;;;;;;;;;;;;;;5026338;28;19925;-67
2024/03/26 13:05:57;;;;;;;;;;;;;;;;;;5034158;28;19978;-66
2024/03/26 13:08:23;;;;;;;;;;;;;;;;;;5035348;28;19980;-67
2024/03/26 13:10:49;;;;;;;;;;;;;;;;;;5035073;28;19925;-67
2024/03/26 13:13:15;;;;;;;;;;;;;;;;;;5033478;28;20344;-67
2024/03/26 13:15:43;;;;;;;;;;;;;;;;;;5033477;28;19930;-67
2024/03/26 13:18:09;;;;;;;;;;;;;;;;;;5028176;28;19929;-68
2024/03/26 13:20:40;;;;;;;;;;;;;;;;;;5033444;28;20253;-68
2024/03/26 13:23:06;;;;;;;;;;;;;;;;;;5033424;28;19925;-68
2024/03/26 13:25:32;;;;;;;;;;;;;;;;;;5034507;28;19979;-68
2024/03/26 13:27:58;;;;;;;;;;;;;;;;;;5035082;28;19929;-68
2024/03/26 13:30:24;;;;;;;;;;;;;;;;;;5034639;28;20371;-68
2024/03/26 13:32:49;;;;;;;;;;;;;;;;;;5034710;28;19924;-68
2024/03/26 13:35:15;;;;;;;;;;;;;;;;;;5033460;28;19929;-68
2024/03/26 13:37:41;;;;;;;;;;;;;;;;;;5028859;28;19980;-67
2024/03/26 13:40:07;;;;;;;;;;;;;;;;;;5015106;28;20390;-68
2024/03/26 13:42:33;;;;;;;;;;;;;;;;;;5015272;28;19922;-68
2024/03/26 13:44:59;;;;;;;;;;;;;;;;;;5014484;28;19978;-68
2024/03/26 13:47:25;;;;;;;;;;;;;;;;;;5013286;28;19921;-68
2024/03/26 13:49:51;;;;;;;;;;;;;;;;;;5014555;28;19988;-68
2024/03/26 13:52:17;;;;;;;;;;;;;;;;;;5021924;28;20364;-68
2024/03/26 13:54:43;;;;;;;;;;;;;;;;;;5012811;28;19925;-68
2024/03/26 13:57:09;;;;;;;;;;;;;;;;;;5018061;28;19925;-67
2024/03/26 13:59:37;;;;;;;;;;;;;;;;;;5031807;28;19994;-67
2024/03/26 14:02:03;;;;;;;;;;;;;;;;;;5033734;28;19925;-67
2024/03/26 14:04:29;;;;;;;;;;;;;;;;;;5033730;28;19952;-68
2024/03/26 14:06:55;;;;;;;;;;;;;;;;;;5033802;28;20344;-67
2024/03/26 14:09:20;;;;;;;;;;;;;;;;;;5019948;28;19921;-67
2024/03/26 14:11:47;;;;;;;;;;;;;;;;;;5027226;28;20579;-67
2024/03/26 14:14:13;;;;;;;;;;;;;;;;;;5028292;28;19963;-68
2024/03/26 14:16:39;;;;;;;;;;;;;;;;;;5033356;28;19956;-68
2024/03/26 14:19:05;;;;;;;;;;;;;;;;;;5032275;28;19972;-67
2024/03/26 14:21:31;;;;;;;;;;;;;;;;;;5032189;28;20403;-68
2024/03/26 14:23:57;;;;;;;;;;;;;;;;;;5031841;28;20012;-68
2024/03/26 14:26:23;;;;;;;;;;;;;;;;;;5017780;28;20007;-67
2024/03/26 14:28:48;;;;;;;;;;;;;;;;;;5033651;28;19933;-67
2024/03/26 14:31:17;;;;;;;;;;;;;;;;;;5033835;28;20344;-67
2024/03/26 14:33:42;;;;;;;;;;;;;;;;;;5033881;28;19972;-67
2024/03/26 14:36:08;;;;;;;;;;;;;;;;;;5032463;28;20371;-67
2024/03/26 14:38:34;;;;;;;;;;;;;;;;;;5030658;28;20010;-67
2024/03/26 14:41:00;;;;;;;;;;;;;;;;;;5028166;28;19968;-67
2024/03/26 14:43:26;;;;;;;;;;;;;;;;;;5033396;28;19963;-67
2024/03/26 14:45:52;;;;;;;;;;;;;;;;;;5024760;28;20075;-67
2024/03/26 14:48:18;;;;;;;;;;;;;;;;;;5043686;28;20110;-69
2024/03/26 14:50:51;;;;;;;;;;;;;;;;;;5052508;28;19925;-67
2024/03/26 14:53:17;;;;;;;;;;;;;;;;;;5023932;28;19922;-67
2024/03/26 14:55:43;;;;;;;;;;;;;;;;;;5023928;28;19952;-67
2024/03/26 14:58:09;;;;;;;;;;;;;;;;;;5027322;28;19932;-67
2024/03/26 15:00:35;;;;;;;;;;;;;;;;;;5035264;28;19924;-68
2024/03/26 15:03:01;;;;;;;;;;;;;;;;;;5053306;28;19927;-67
2024/03/26 15:05:27;;;;;;;;;;;;;;;;;;5044981;28;19929;-66
2024/03/26 15:07:53;;;;;;;;;;;;;;;;;;5052815;28;19921;-66
2024/03/26 15:10:19;;;;;;;;;;;;;;;;;;5051584;28;19981;-66
2024/03/26 15:12:45;;;;;;;;;;;;;;;;;;5037923;28;19963;-67
2024/03/26 15:15:11;;;;;;;;;;;;;;;;;;5026406;28;19951;-67
2024/03/26 15:17:36;;;;;;;;;;;;;;;;;;5045388;28;19925;-67
2024/03/26 15:20:02;;;;;;;;;;;;;;;;;;5042875;28;19928;-67
2024/03/26 15:22:29;;;;;;;;;;;;;;;;;;5050650;28;20367;-67
2024/03/26 15:24:55;;;;;;;;;;;;;;;;;;5047216;28;20300;-67
2024/03/26 15:32:31;;;;;;;;;;;;;;;;;;5037072;28;19928;-67
2024/03/26 15:34:57;;;;;;;;;;;;;;;;;;5038955;28;20421;-66
2024/03/26 15:37:23;;;;;;;;;;;;;;;;;;5029312;28;20354;-66
2024/03/26 15:39:49;;;;;;;;;;;;;;;;;;5042163;28;19936;-66
2024/03/26 15:42:16;;;;;;;;;;;;;;;;;;5044526;28;19925;-66
2024/03/26 15:44:42;;;;;;;;;;;;;;;;;;5049277;28;19925;-66
2024/03/26 15:47:08;;;;;;;;;;;;;;;;;;5044697;28;20438;-67
2024/03/26 15:49:34;;;;;;;;;;;;;;;;;;5026062;28;19921;-67
2024/03/26 15:52:00;;;;;;;;;;;;;;;;;;5032405;28;19975;-67
2024/03/26 15:54:26;;;;;;;;;;;;;;;;;;5012026;28;20406;-66
2024/03/26 15:56:52;;;;;;;;;;;;;;;;;;5036147;28;19972;-66
2024/03/26 15:59:18;;;;;;;;;;;;;;;;;;5040472;28;19960;-66
2024/03/26 16:01:44;;;;;;;;;;;;;;;;;;5029303;28;20407;-66
2024/03/26 16:04:10;;;;;;;;;;;;;;;;;;5021395;28;20015;-64
2024/03/26 16:06:36;;;;;;;;;;;;;;;;;;5024850;28;20348;-65
2024/03/26 16:09:02;;;;;;;;;;;;;;;;;;5037407;28;19925;-64
2024/03/26 16:11:28;;;;;;;;;;;;;;;;;;5037549;28;19925;-65
2024/03/26 16:13:54;;;;;;;;;;;;;;;;;;5044224;28;19957;-64
2024/03/26 16:16:20;;;;;;;;;;;;;;;;;;5027939;28;20308;-64
2024/03/26 16:18:46;;;;;;;;;;;;;;;;;;5026308;28;19967;-65
2024/03/26 16:21:12;;;;;;;;;;;;;;;;;;5016490;28;19967;-64
2024/03/26 16:23:38;;;;;;;;;;;;;;;;;;5024725;28;20506;-65
2024/03/26 16:26:04;;;;;;;;;;;;;;;;;;5037979;28;19999;-65
2024/03/26 16:28:32;;;;;;;;;;;;;;;;;;5026167;28;21518;-65
2024/03/26 16:30:58;;;;;;;;;;;;;;;;;;5046041;28;19974;-65
2024/03/26 16:33:24;;;;;;;;;;;;;;;;;;5038932;28;19972;-64
2024/03/26 16:35:50;;;;;;;;;;;;;;;;;;5027520;28;19925;-65
2024/03/26 16:38:15;;;;;;;;;;;;;;;;;;5029352;28;19921;-65
2024/03/26 16:40:41;;;;;;;;;;;;;;;;;;5031167;28;19972;-65
2024/03/26 16:43:09;;;;;;;;;;;;;;;;;;5053128;28;19982;-65